Home > Products > Valid Products > TAF

000
FTUS41 KBUF 162000 AAA
TAFBUF
TAF AMD
KBUF 162041Z 1621/1718 31008KT P6SM FEW050
     FM162200 24006KT P6SM SCT050
     FM170400 VRB03KT P6SM SCT100
     FM170900 17004KT P6SM SCT040
     FM171400 22005KT P6SM SCT110=



000
FTUS41 KBUF 162000 AAA
TAFART
TAF AMD
KART 162041Z 1621/1718 24008KT P6SM SCT060
     FM170200 23006KT P6SM SCT050
     FM170800 22004KT P6SM SCT140
     FM171500 26007KT P6SM SCT040=



000
FTUS41 KBUF 162000 AAA
TAFJHW
TAF AMD
KJHW 162041Z 1621/1718 30008KT P6SM SCT040
     FM162300 31005KT P6SM SCT040
     FM170500 VRB03KT P6SM SCT030
     FM170600 VRB03KT P6SM BKN025
     FM170800 00000KT 2SM BR BKN020
     FM171200 VRB03KT P6SM BKN020
     FM171300 23004KT P6SM SCT030
      AMD LTD TO CLD VIS AND WIND=



000
FTUS41 KBUF 162000 AAA
TAFIAG
TAF AMD
KIAG 162041Z 1621/1718 29010KT P6SM SCT050
     FM162200 27005KT P6SM SCT050
     FM170300 29004KT P6SM SCT050
     FM171200 18004KT P6SM SCT150
     FM171600 20006KT P6SM SCT040=



000
FTUS41 KBUF 162000 AAA
TAFROC
TAF AMD
KROC 162041Z 1621/1718 30008KT P6SM SCT050
     FM162300 29005KT P6SM SKC
     FM170200 24004KT P6SM SCT110
     FM170800 22004KT P6SM SCT200
     FM171200 20005KT P6SM FEW040
     FM171600 23005KT P6SM SCT040=



000
FTUS41 KBUF 161700
TAFBUF
TAF
KBUF 161725Z 1618/1718 30007KT P6SM FEW040 FEW250
     FM162300 24006KT P6SM SCT040
     FM170400 VRB03KT P6SM SCT100
     FM170900 17004KT P6SM SCT040
     FM171400 22005KT P6SM SCT110=



000
FTUS41 KBUF 161700
TAFIAG
TAF
KIAG 161725Z 1618/1718 33011KT P6SM FEW035
     FM162200 27005KT P6SM SCT050
     FM170300 29004KT P6SM SCT050
     FM171200 18004KT P6SM SCT150
     FM171600 20006KT P6SM SCT040=



000
FTUS41 KBUF 161700
TAFJHW
TAF
KJHW 161725Z 1618/1718 31007KT P6SM BKN040
     FM162200 31006KT P6SM SCT040
     FM170500 VRB03KT P6SM SCT030
     FM170600 VRB03KT P6SM BKN025
     FM170800 00000KT 2SM BR BKN020
     FM171200 VRB03KT P6SM BKN020
     FM171300 23004KT P6SM SCT030
      AMD LTD TO CLD VIS AND WIND=



000
FTUS41 KBUF 161700
TAFART
TAF
KART 161725Z 1618/1718 25007KT P6SM SKC
     FM162300 23008KT P6SM BKN200
     FM170800 22004KT P6SM SCT140
     FM171500 26007KT P6SM SCT040=



000
FTUS41 KBUF 161700
TAFROC
TAF
KROC 161725Z 1618/1718 33010KT P6SM SCT040
     FM162300 29005KT P6SM SCT200
     FM170200 24004KT P6SM SCT110
     FM170800 22004KT P6SM SCT200
     FM171200 20005KT P6SM FEW040
     FM171600 23005KT P6SM SCT040=



000
FTUS41 KBUF 161500 AAA
TAFJHW
TAF AMD
KJHW 161515Z 1615/1712 31009KT P6SM BKN010 BKN020 OVC030
      TEMPO 1615/1618 SCT020
     FM161800 31008KT P6SM BKN030
     FM162300 29005KT P6SM SCT035
     FM170800 28004KT 3SM BR BKN025
      AMD LTD TO CLD VIS AND WIND=



000
FTUS41 KBUF 161500 AAA
TAFBUF
TAF AMD
KBUF 161515Z 1615/1712 31008KT P6SM SCT016 SCT070
      TEMPO 1615/1617 BKN020
     FM161700 30007KT P6SM BKN040
     FM170000 VRB03KT P6SM SCT040=



000
FTUS41 KBUF 161500 AAA
TAFART
TAF AMD
KART 161515Z 1615/1712 30008KT P6SM BKN020 BKN029
      TEMPO 1615/1617 SCT020
     FM161700 27009KT P6SM BKN040
     FM170000 23007KT P6SM FEW250
     FM171000 21005KT P6SM FEW040=



000
FTUS41 KBUF 161500 AAA
TAFIAG
TAF AMD
KIAG 161515Z 1615/1712 31009KT P6SM SCT024 SCT220
     FM161700 31007KT P6SM SCT040
     FM170000 VRB03KT P6SM FEW040
     FM171000 18005KT P6SM SCT040=



000
FTUS41 KBUF 161500 AAA
TAFROC
TAF AMD
KROC 161515Z 1615/1712 28011G14KT P6SM FEW022 BKN035 BKN080
      TEMPO 1615/1617 BKN025
     FM161700 31008KT P6SM BKN040
     FM170000 25004KT P6SM FEW040=



000
FTUS41 KBUF 161100
TAFBUF
TAF
KBUF 161140Z 1612/1712 29006KT P6SM BKN040
     FM161500 30007KT P6SM SCT040
     FM161800 30007KT P6SM FEW250
     FM170300 VRB03KT P6SM SCT040=



000
FTUS41 KBUF 161100
TAFART
TAF
KART 161140Z 1612/1712 00000KT P6SM BKN060
     FM161400 28004KT P6SM BKN040
     FM161700 27009KT P6SM BKN040
     FM170100 23007KT P6SM FEW250
     FM171000 21005KT P6SM FEW040=



000
FTUS41 KBUF 161100
TAFJHW
TAF
KJHW 161140Z 1612/1712 23005KT P6SM SCT020 OVC050
     FM161400 32006KT P6SM BKN040
     FM162000 31008KT P6SM SCT040
     FM162300 29005KT P6SM SCT040
     FM170700 28004KT 6SM BR SCT025
      AMD LTD TO CLD VIS AND WIND=



000
FTUS41 KBUF 161100
TAFIAG
TAF
KIAG 161140Z 1612/1712 29006KT P6SM BKN080
     FM161400 32007KT P6SM SCT060
     FM161700 31007KT P6SM FEW250
     FM170100 VRB03KT P6SM FEW045
     FM171100 18005KT P6SM SCT040=



000
FTUS41 KBUF 161100
TAFROC
TAF
KROC 161140Z 1612/1712 28007KT P6SM BKN040
      TEMPO 1612/1614 5SM BR
     FM161700 31008KT P6SM SCT040
     FM161800 32008KT P6SM FEW250
     FM170200 25004KT P6SM FEW045=



000
FTUS41 KBUF 160900 AAC
TAFJHW
TAF AMD
KJHW 160938Z 1610/1706 VRB04KT P6SM OVC060
     FM161300 34006KT P6SM BKN040
     FM161700 33008KT P6SM SCT040
     FM170200 28005KT P6SM FEW040 SCT250
      AMD LTD TO CLD VIS AND WIND=



000
FTUS41 KBUF 160900 AAC
TAFART
TAF AMD
KART 160938Z 1610/1706 00000KT P6SM BKN060 OVC100
     FM161300 VRB03KT P6SM SCT060
     FM161700 25013KT P6SM FEW040 SCT250
     FM170100 24007KT P6SM FEW040 FEW150=



000
FTUS41 KBUF 160900 AAB
TAFIAG
TAF AMD
KIAG 160938Z 1610/1706 27006KT P6SM SCT025 OVC040
     FM161100 31006KT P6SM SCT040
     FM161400 28008KT P6SM FEW040 SCT250
     FM170200 29004KT P6SM FEW040 FEW250=



000
FTUS41 KBUF 160900 AAB
TAFROC
TAF AMD
KROC 160938Z 1610/1706 27007KT 6SM BR SCT030 BKN070
     FM161300 32009KT P6SM SCT045
     FM162300 27007KT P6SM FEW040 SCT250=



000
FTUS41 KBUF 160900 AAB
TAFBUF
TAF AMD
KBUF 160938Z 1610/1706 27005KT P6SM SCT025 BKN040
     FM161200 32005KT P6SM SCT040
     FM161500 28008KT P6SM FEW040 SCT250
     FM170200 VRB03KT P6SM FEW040 SCT250=



000
FTUS41 KBUF 160700 AAB
TAFJHW
TAF AMD
KJHW 160726Z 1607/1706 31005KT P6SM BKN025
     FM161000 34005KT 5SM BR OVC015
     FM161300 34006KT P6SM BKN012
     FM161700 33008KT P6SM SCT025
     FM170200 28005KT P6SM FEW040 SCT250
      AMD LTD TO CLD VIS AND WIND=



000
FTUS41 KBUF 160700 AAB
TAFART
TAF AMD
KART 160724Z 1607/1706 VRB03KT 5SM -SHRA BR BKN015 OVC035
     FM161000 00000KT 6SM BR VCSH OVC030
     FM161300 VRB03KT P6SM BKN060
     FM161700 25013KT P6SM FEW040 SCT250
     FM170100 24007KT P6SM FEW040 FEW150=



000
FTUS41 KBUF 160700 AAA
TAFROC
TAF AMD
KROC 160723Z 1607/1706 28006KT 5SM -SHRA BR SCT025 BKN040
     FM160900 27007KT P6SM BKN015
     FM161300 32009KT P6SM SCT045
     FM162300 27007KT P6SM FEW040 SCT250=



000
FTUS41 KBUF 160700 AAA
TAFBUF
TAF AMD
KBUF 160722Z 1607/1706 22005KT P6SM FEW015 SCT040 OVC070
     FM160800 27005KT P6SM SCT012 OVC040
     FM161200 32005KT P6SM SCT025
     FM161500 28008KT P6SM FEW040 SCT250
     FM170200 VRB03KT P6SM FEW040 SCT250=



000
FTUS41 KBUF 160700 AAA
TAFIAG
TAF AMD
KIAG 160721Z 1607/1706 23004KT P6SM VCSH OVC060
     FM160800 30006KT P6SM SCT012 OVC040
     FM161100 31006KT P6SM SCT040
     FM161400 28008KT P6SM FEW040 SCT250
     FM170200 29004KT P6SM FEW040 FEW250=



000
FTUS41 KBUF 160600 AAA
TAFJHW
TAF AMD
KJHW 160642Z 1607/1706 VRB03KT P6SM -SHRA BKN015
     FM160800 33006KT 6SM BR VCSH BKN003
     FM161000 34005KT 4SM BR OVC003
     FM161200 33006KT P6SM BKN007
     FM161300 34006KT P6SM BKN012
     FM161700 33008KT P6SM SCT025
     FM170200 28005KT P6SM FEW040 SCT250
      AMD LTD TO CLD VIS AND WIND=



000
FTUS41 KBUF 160600 AAA
TAFART
TAF AMD
KART 160641Z 1607/1706 VRB03KT P6SM -SHRA OVC080
      TEMPO 1607/1608 2SM RA BR BKN035
     FM160800 VRB03KT 6SM -SHRA BR OVC035
     FM161000 00000KT 6SM BR VCSH OVC030
     FM161300 VRB03KT P6SM BKN060
     FM161700 25013KT P6SM FEW040 SCT250
     FM170100 24007KT P6SM FEW040 FEW150=



000
FTUS41 KBUF 160500 RRA
TAFJHW
TAF
KJHW 160547Z 1606/1706 32008KT P6SM -SHRA OVC050
     FM160800 33006KT 6SM BR VCSH BKN003
     FM161000 34005KT 4SM BR OVC003
     FM161200 33006KT P6SM BKN007
     FM161300 34006KT P6SM BKN012
     FM161700 33008KT P6SM SCT025
     FM170200 28005KT P6SM FEW040 SCT250
      AMD LTD TO CLD VIS AND WIND=



000
FTUS41 KBUF 160500 RRA
TAFBUF
TAF
KBUF 160547Z 1606/1706 22005KT P6SM -SHRA FEW015 SCT040 OVC070
     FM160800 27005KT P6SM BKN012 OVC080
     FM161200 32005KT P6SM SCT025
     FM161500 28008KT P6SM FEW040 SCT250
     FM170200 VRB03KT P6SM FEW040 SCT250=



000
FTUS41 KBUF 160500 RRA
TAFART
TAF
KART 160547Z 1606/1706 VRB03KT P6SM -SHRA OVC080
     FM160800 VRB03KT 6SM -SHRA BR OVC035
     FM161000 00000KT 6SM BR VCSH OVC030
     FM161300 VRB03KT P6SM BKN060
     FM161700 25013KT P6SM FEW040 SCT250
     FM170100 24007KT P6SM FEW040 FEW150=



000
FTUS41 KBUF 160500 RRA
TAFIAG
TAF
KIAG 160547Z 1606/1706 23004KT P6SM VCSH OVC080
     FM160800 30006KT P6SM BKN012 OVC080
     FM161100 31006KT P6SM SCT045
     FM161400 28008KT P6SM FEW040 SCT250
     FM170200 29004KT P6SM FEW040 FEW250=



000
FTUS41 KBUF 160500 RRA
TAFROC
TAF
KROC 160547Z 1606/1706 23005KT 4SM SHRA BR BKN025 OVC040
     FM160700 28006KT 6SM -SHRA BKN025
     FM160900 27007KT P6SM BKN015
     FM161300 32009KT P6SM SCT045
     FM162300 27007KT P6SM FEW040 SCT250=



000
FTUS41 KBUF 160400 AAC
TAFJHW
TAF AMD
KJHW 160437Z 1605/1624 32006KT P6SM -RA SCT002 BKN015 OVC025
      TEMPO 1605/1606 3SM RA OVC012
     FM160600 00000KT 5SM -RA BR BKN003 OVC025
     FM160800 VRB03KT 6SM -SHRA BKN003 BKN025
     FM161000 29004KT P6SM BKN003 BKN025
     FM161400 34007KT P6SM BKN035 BKN100
     FM161600 35007KT P6SM BKN250
     FM162000 31008KT P6SM FEW250
      AMD LTD TO CLD VIS AND WIND=



000
FTUS41 KBUF 160400 AAC
TAFROC
TAF AMD
KROC 160436Z 1605/1624 20005KT 6SM -RA BR OVC035
     FM160700 23005KT P6SM -RA SCT025 OVC045
     FM160900 25006KT P6SM BKN020 BKN100
     FM161000 26007KT P6SM SCT100 BKN250
     FM161200 31010KT P6SM SCT100 BKN250=



000
FTUS41 KBUF 160400 AAC
TAFIAG
TAF AMD
KIAG 160435Z 1605/1624 22006KT P6SM -RA OVC050
     FM160600 26005KT P6SM -SHRA BKN020 OVC025
     FM160800 29005KT P6SM BKN035 BKN100
     FM160900 30005KT P6SM SCT100 BKN250
     FM161200 34006KT P6SM FEW100 SCT250
     FM161900 30008KT P6SM FEW250=



000
FTUS41 KBUF 160400 AAA
TAFBUF
TAF AMD
KBUF 160433Z 1605/1624 22005KT 4SM -RA BR FEW012 BKN030 OVC050
     FM160700 24004KT P6SM -SHRA SCT025 OVC030
     FM160800 27004KT P6SM BKN020 BKN025
     FM161000 29004KT P6SM SCT100 BKN250
     FM161200 33005KT P6SM SCT100 BKN250
     FM162000 29008KT P6SM SCT250=



000
FTUS41 KBUF 160300 AAB
TAFIAG
TAF AMD
KIAG 160317Z 1603/1624 00000KT P6SM -RA FEW018 OVC050
     FM160400 25005KT 3SM RA BKN025 OVC030
     FM160600 26005KT P6SM -SHRA BKN020 OVC025
     FM160800 29005KT P6SM BKN035 BKN100
     FM160900 30005KT P6SM SCT100 BKN250
     FM161200 34006KT P6SM FEW100 SCT250
     FM161900 30008KT P6SM FEW250=



000
FTUS41 KBUF 160300 AAB
TAFART
TAF AMD
KART 160317Z 1603/1624 17004KT P6SM VCSH BKN060 BKN080 OVC100
     FM160500 VRB03KT 6SM -RA SCT025 OVC040
     FM160700 VRB03KT 6SM -RA SCT025 OVC030
     FM160900 00000KT P6SM -SHRA BKN020 OVC025
     FM161100 00000KT P6SM SCT100 BKN250
     FM161500 32004KT P6SM SCT250
     FM161800 27007KT P6SM SCT200
     FM162100 25011KT P6SM SCT250=



000
FTUS41 KBUF 160300 AAB
TAFBUF
TAF AMD
KBUF 160317Z 1603/1624 23003KT 4SM -RA BR FEW012 BKN030 OVC035
     FM160400 22005KT 3SM RA BKN025 OVC050
     FM160700 24004KT P6SM -SHRA SCT025 OVC030
     FM160800 27004KT P6SM BKN020 BKN025
     FM161000 29004KT P6SM SCT100 BKN250
     FM161200 33005KT P6SM SCT100 BKN250
     FM162000 29008KT P6SM SCT250=



000
FTUS41 KBUF 160300 AAB
TAFROC
TAF AMD
KROC 160317Z 1603/1624 00000KT P6SM -RA BKN040 BKN050 OVC070
     FM160400 24005KT 6SM -RA SCT035 OVC050
     FM160500 22005KT 4SM -RA SCT025 OVC050
     FM160700 23005KT P6SM -RA SCT025 OVC045
     FM160900 25006KT P6SM BKN020 BKN100
     FM161000 26007KT P6SM SCT100 BKN250
     FM161200 31010KT P6SM SCT100 BKN250=



000
FTUS41 KBUF 160300 AAB
TAFJHW
TAF AMD
KJHW 160317Z 1603/1624 32004KT 5SM -RA FEW002 BKN018 OVC025
      TEMPO 1604/1605 3SM RA OVC012
     FM160500 00000KT 3SM RA BKN012 OVC025
     FM160600 00000KT 5SM -RA BR BKN003 OVC025
     FM160800 VRB03KT 6SM -SHRA BKN003 BKN025
     FM161000 29004KT P6SM BKN003 BKN025
     FM161400 34007KT P6SM BKN035 BKN100
     FM161600 35007KT P6SM BKN250
     FM162000 31008KT P6SM FEW250
      AMD LTD TO CLD VIS AND WIND=



000
FTUS41 KBUF 160200 AAA
TAFBUF
TAF AMD
KBUF 160238Z 1603/1624 32005KT 3SM RA BR SCT011 BKN035 OVC045
     FM160400 22005KT 6SM -RA SCT025 OVC050
     FM160700 24004KT P6SM -SHRA SCT025 OVC030
     FM160800 27004KT P6SM BKN020 BKN025
     FM161000 29004KT P6SM SCT100 BKN250
     FM161200 33005KT P6SM SCT100 BKN250
     FM162000 29008KT P6SM SCT250=



000
FTUS41 KBUF 160200 AAA
TAFIAG
TAF AMD
KIAG 160238Z 1603/1624 20004KT P6SM -RA SCT035 BKN050 OVC070
     FM160500 25005KT 6SM -RA SCT025 OVC030
     FM160600 26005KT P6SM -SHRA BKN020 OVC025
     FM160800 29005KT P6SM BKN035 BKN100
     FM160900 30005KT P6SM SCT100 BKN250
     FM161200 34006KT P6SM FEW100 SCT250
     FM161900 30008KT P6SM FEW250=



000
FTUS41 KBUF 160200 AAA
TAFROC
TAF AMD
KROC 160238Z 1603/1624 27003KT P6SM BKN045 BKN060 OVC080
     FM160400 24005KT 6SM -RA SCT035 OVC050
     FM160500 22005KT 6SM -RA SCT025 OVC050
     FM160700 23005KT P6SM -RA SCT025 OVC045
     FM160900 25006KT P6SM BKN020 BKN100
     FM161000 26007KT P6SM SCT100 BKN250
     FM161200 31010KT P6SM SCT100 BKN250=



000
FTUS41 KBUF 160200 AAA
TAFJHW
TAF AMD
KJHW 160238Z 1603/1624 35003KT P6SM SCT027 BKN045 OVC060
      TEMPO 1604/1605 3SM RA OVC018
     FM160500 00000KT 3SM RA BKN012 OVC025
     FM160600 00000KT 5SM -RA BR BKN003 OVC025
     FM160800 VRB03KT 6SM -SHRA BKN003 BKN025
     FM161000 29004KT P6SM BKN003 BKN025
     FM161400 34007KT P6SM BKN035 BKN100
     FM161600 35007KT P6SM BKN250
     FM162000 31008KT P6SM FEW250
      AMD LTD TO CLD VIS AND WIND=



000
FTUS41 KBUF 160200 AAA
TAFART
TAF AMD
KART 160238Z 1603/1624 15004KT P6SM -RA VCSH BKN080 OVC090
     FM160500 VRB03KT 6SM -RA SCT025 OVC040
     FM160700 VRB03KT 6SM -RA SCT025 OVC030
     FM160900 00000KT P6SM -SHRA BKN020 OVC025
     FM161100 00000KT P6SM SCT100 BKN250
     FM161500 32004KT P6SM SCT250
     FM161800 27007KT P6SM SCT200
     FM162100 25011KT P6SM SCT250=



000
FTUS41 KBUF 152300
TAFIAG
TAF
KIAG 152335Z 1600/1624 32003KT P6SM -RA SCT045 OVC090
     FM160200 VRB03KT 6SM -SHRA SCT025 OVC080
     FM160300 22006KT 6SM -SHRA SCT025 OVC040
     FM160600 26005KT P6SM VCSH OVC025
     FM160700 27005KT P6SM OVC025
     FM160900 30005KT P6SM BKN050 BKN100
     FM161000 31005KT P6SM SCT100 BKN250=



000
FTUS41 KBUF 152300
TAFROC
TAF
KROC 152335Z 1600/1624 05003KT P6SM BKN070 OVC110
     FM160200 19004KT 6SM -SHRA SCT025 OVC050
     FM160600 22005KT 6SM -SHRA SCT025 OVC040
     FM160800 24005KT P6SM SCT025 OVC030
     FM161000 26007KT P6SM BKN020 BKN100
     FM161200 31010KT P6SM BKN020 BKN100
     FM161300 31010KT P6SM SCT100 BKN250=



000
FTUS41 KBUF 152300
TAFART
TAF
KART 152335Z 1600/1624 00000KT P6SM FEW050 SCT080 SCT100
     FM160200 VRB03KT P6SM -SHRA SCT025 OVC070
     FM160600 VRB03KT 6SM -SHRA SCT025 OVC045
     FM160900 00000KT P6SM VCSH SCT025 OVC035
     FM161200 00000KT P6SM SCT100 BKN150
     FM161300 00000KT P6SM SCT100 BKN250
     FM161500 32004KT P6SM BKN250
     FM162100 25011KT P6SM BKN250=



000
FTUS41 KBUF 152300
TAFJHW
TAF
KJHW 152335Z 1600/1624 23003KT P6SM VCSH OVC060
     FM160200 00000KT 6SM -SHRA BKN020 OVC025
     FM160700 00000KT 3SM BR VCSH BKN015 OVC025
     FM161000 29004KT 4SM BR BKN015 BKN025
     FM161200 31005KT 4SM BR OVC025
     FM161400 34007KT P6SM SCT100 OVC120
     FM161500 35007KT P6SM OVC250
     FM162000 31008KT P6SM SCT250
      AMD LTD TO CLD VIS AND WIND=



000
FTUS41 KBUF 152300
TAFBUF
TAF
KBUF 152335Z 1600/1624 00000KT P6SM BKN040 OVC090
     FM160100 22004KT P6SM VCSH SCT025 OVC080
     FM160300 22006KT 6SM -SHRA SCT025 OVC035
     FM160600 23004KT 6SM -SHRA SCT025 OVC030
     FM160800 27004KT P6SM BKN025
     FM161000 29004KT P6SM SCT100 BKN200
     FM161200 33005KT P6SM SCT100 BKN150
     FM162000 29008KT P6SM SCT250
     FM162300 27005KT P6SM SCT045=



000
FTUS41 KBUF 152100 AAA
TAFROC
TAF AMD
KROC 152121Z 1521/1618 36005KT P6SM BKN045 BKN070 BKN140
     FM160200 19004KT 6SM -SHRA SCT025 OVC050
     FM160800 24005KT P6SM BKN025 OVC030
     FM161000 26007KT P6SM BKN020 BKN100
     FM161200 31010KT P6SM SCT100 BKN250=



000
FTUS41 KBUF 152100 AAA
TAFJHW
TAF AMD
KJHW 152121Z 1521/1618 24005KT P6SM BKN045 BKN080 OVC120
     FM152300 21005KT P6SM VCSH OVC035
     FM160000 00000KT 6SM -SHRA BKN020 OVC025
     FM160700 00000KT 3SM BR VCSH BKN015 OVC025
     FM161000 29004KT 4SM BR BKN015 BKN025
     FM161400 34007KT P6SM SCT100 BKN120
      AMD LTD TO CLD VIS AND WIND=



000
FTUS41 KBUF 152100 AAA
TAFART
TAF AMD
KART 152121Z 1521/1618 22004KT P6SM BKN100
     FM160100 VRB03KT P6SM BKN070 OVC100
     FM160200 VRB03KT P6SM VCSH SCT025 OVC070
     FM160400 VRB03KT 6SM -SHRA SCT025 OVC070
     FM161000 VRB03KT P6SM BKN025 OVC070
     FM161200 VRB04KT P6SM SCT100 BKN150=



000
FTUS41 KBUF 152100 AAA
TAFBUF
TAF AMD
KBUF 152121Z 1521/1618 24004KT P6SM FEW040 FEW050 OVC110
     FM152300 23005KT P6SM VCSH SCT025 OVC080
     FM160100 22006KT 6SM -SHRA SCT025 OVC035
     FM160700 27004KT P6SM BKN025
     FM161000 29004KT P6SM SCT100 BKN200=



000
FTUS41 KBUF 152100 AAA
TAFIAG
TAF AMD
KIAG 152121Z 1521/1618 26004KT P6SM -RA FEW060 OVC100
     FM152300 23005KT P6SM VCSH SCT025 OVC080
     FM160100 22006KT 6SM -SHRA SCT025 OVC035
     FM160600 27004KT P6SM BKN025
     FM161000 29004KT P6SM SCT100 BKN200=



000
FTUS41 KBUF 151700
TAFBUF
TAF
KBUF 151728Z 1518/1618 22009KT P6SM SCT100 BKN200
     FM151900 24010KT P6SM BKN100
     FM152300 23005KT P6SM VCSH SCT025 OVC080
     FM160100 22006KT 6SM -SHRA SCT025 OVC035
     FM160700 27004KT P6SM BKN025
     FM161000 29004KT P6SM SCT100 BKN200=



000
FTUS41 KBUF 151700
TAFIAG
TAF
KIAG 151728Z 1518/1618 22010KT P6SM BKN140
     FM151900 24010KT P6SM BKN100
     FM152300 23005KT P6SM VCSH SCT025 OVC080
     FM160100 22006KT 6SM -SHRA SCT025 OVC035
     FM160600 27004KT P6SM BKN025
     FM161000 29004KT P6SM SCT100 BKN200=



000
FTUS41 KBUF 151700
TAFROC
TAF
KROC 151728Z 1518/1618 23007KT P6SM SCT180
     FM152000 24004KT P6SM BKN110
     FM160200 19004KT 6SM -SHRA SCT025 OVC050
     FM160800 24005KT P6SM BKN025 OVC030
     FM161000 26007KT P6SM BKN020 BKN100
     FM161200 31010KT P6SM SCT100 BKN250=



000
FTUS41 KBUF 151700
TAFJHW
TAF
KJHW 151728Z 1518/1618 22006KT P6SM BKN035
     FM152300 21005KT P6SM VCSH OVC035
     FM160000 00000KT 6SM -SHRA BKN020 OVC025
     FM160700 00000KT 3SM BR VCSH BKN015 OVC025
     FM161000 29004KT 4SM BR BKN015 BKN025
     FM161400 34007KT P6SM SCT100 BKN120
      AMD LTD TO CLD VIS AND WIND=



000
FTUS41 KBUF 151700
TAFART
TAF
KART 151728Z 1518/1618 22010KT P6SM BKN060
     FM160100 VRB03KT P6SM BKN070 OVC100
     FM160200 VRB03KT P6SM VCSH SCT025 OVC070
     FM160400 VRB03KT 6SM -SHRA SCT025 OVC070
     FM161000 VRB03KT P6SM BKN025 OVC070
     FM161200 VRB04KT P6SM SCT100 BKN150=



000
FTUS41 KBUF 151500 AAA
TAFROC
TAF AMD
KROC 151511Z 1515/1612 20010KT P6SM FEW035 BKN250
     FM152000 24004KT P6SM SCT045 BKN110
     FM160000 00000KT P6SM VCSH OVC100
     FM160200 VRB03KT P6SM -SHRA BKN060 OVC100
     FM160300 22005KT 5SM -SHRA BKN035 OVC100
     FM160700 23005KT P6SM -SHRA BKN045 OVC100
     FM161100 28006KT P6SM BKN050 BKN100=



000
FTUS41 KBUF 151500 AAA
TAFJHW
TAF AMD
KJHW 151511Z 1515/1612 VRB04KT P6SM SCT250
     FM152100 24006KT P6SM VCSH SCT040 OVC100
     FM160100 21004KT P6SM -SHRA BKN045 OVC100
     FM160500 00000KT 5SM -SHRA BKN020 OVC100
     FM160800 VRB03KT P6SM VCSH BKN012 OVC100
     FM161100 30004KT P6SM BKN012 OVC100
      AMD LTD TO CLD VIS AND WIND=



000
FTUS41 KBUF 151500 AAA
TAFBUF
TAF AMD
KBUF 151511Z 1515/1612 18008KT P6SM FEW100 BKN250
     FM151600 22008KT P6SM FEW045 FEW140
     FM152300 23004KT P6SM VCSH SCT045 OVC090
     FM160100 VRB03KT P6SM -SHRA BKN060 OVC100
     FM160300 22006KT 5SM -SHRA BKN025 OVC100
     FM160900 28004KT P6SM BKN040 BKN100=



000
FTUS41 KBUF 151500 AAA
TAFIAG
TAF AMD
KIAG 151511Z 1515/1612 22008KT P6SM BKN250
     FM151900 21009KT P6SM SCT045 BKN120
     FM152300 21006KT P6SM VCSH SCT045 OVC090
     FM160200 21005KT P6SM -SHRA BKN045 OVC100
     FM160400 23006KT 5SM -SHRA BKN030 OVC100
     FM160600 26005KT P6SM -SHRA BKN045 OVC100
     FM160800 29005KT P6SM BKN050 BKN100=



000
FTUS41 KBUF 151500 AAA
TAFART
TAF AMD
KART 151511Z 1515/1612 20008KT P6SM SCT050 OVC070
     FM152300 21006KT P6SM SCT045 OVC100
     FM160200 VRB03KT P6SM VCSH BKN060 OVC100
     FM160500 VRB03KT P6SM -SHRA BKN045 OVC100
     FM160900 00000KT P6SM -SHRA BKN020 OVC100=



000
FTUS41 KBUF 151100
TAFART
TAF
KART 151135Z 1512/1612 VRB03KT P6SM OVC070
     FM151400 22008KT P6SM SCT060
     FM152300 21006KT P6SM SCT045 OVC100
     FM160200 VRB03KT P6SM VCSH BKN060 OVC100
     FM160500 VRB03KT P6SM -SHRA BKN045 OVC100
     FM160900 00000KT P6SM -SHRA BKN020 OVC100=



000
FTUS41 KBUF 151100
TAFROC
TAF
KROC 151135Z 1512/1612 22004KT P6SM SCT090
     FM152000 24004KT P6SM SCT045 BKN110
     FM160000 00000KT P6SM VCSH OVC100
     FM160200 VRB03KT P6SM -SHRA BKN060 OVC100
     FM160300 22005KT 5SM -SHRA BKN035 OVC100
     FM160700 23005KT P6SM -SHRA BKN045 OVC100
     FM161100 28006KT P6SM BKN050 BKN100=



000
FTUS41 KBUF 151100
TAFIAG
TAF
KIAG 151135Z 1512/1612 VRB03KT P6SM FEW060
     FM151900 21009KT P6SM SCT045 BKN120
     FM152300 21006KT P6SM VCSH SCT045 OVC090
     FM160200 21005KT P6SM -SHRA BKN045 OVC100
     FM160400 23006KT 5SM -SHRA BKN030 OVC100
     FM160600 26005KT P6SM -SHRA BKN045 OVC100
     FM160800 29005KT P6SM BKN050 BKN100=



000
FTUS41 KBUF 151100
TAFJHW
TAF
KJHW 151135Z 1512/1612 20005KT P6SM SCT040 BKN140
     FM152100 24006KT P6SM VCSH SCT040 OVC100
     FM160100 21004KT P6SM -SHRA BKN045 OVC100
     FM160500 00000KT 5SM -SHRA BKN020 OVC100
     FM160800 VRB03KT P6SM VCSH BKN012 OVC100
     FM161100 30004KT P6SM BKN012 OVC100
      AMD LTD TO CLD VIS AND WIND=



000
FTUS41 KBUF 151100
TAFBUF
TAF
KBUF 151135Z 1512/1612 20004KT P6SM SCT120
     FM151600 22008KT P6SM FEW045 FEW140
     FM152300 23004KT P6SM VCSH SCT045 OVC090
     FM160100 VRB03KT P6SM -SHRA BKN060 OVC100
     FM160300 22006KT 5SM -SHRA BKN025 OVC100
     FM160900 28004KT P6SM BKN040 BKN100=



000
FTUS41 KBUF 150900 AAA
TAFROC
TAF AMD
KROC 150915Z 1509/1606 00000KT P6SM OVC060
     FM151500 23005KT P6SM SCT045 BKN150
     FM160100 00000KT P6SM VCSH OVC080
     FM160200 VRB03KT P6SM -SHRA OVC060
     FM160300 22005KT P6SM -SHRA OVC035=



000
FTUS41 KBUF 150900 AAA
TAFJHW
TAF AMD
KJHW 150915Z 1509/1606 00000KT P6SM OVC045
     FM151500 20005KT P6SM SCT040 BKN140
     FM152000 23007KT P6SM SCT040 BKN110
     FM152300 21005KT P6SM VCSH SCT040 OVC070
     FM160000 20004KT 6SM -SHRA OVC040
     FM160500 00000KT 6SM -SHRA OVC020
      AMD LTD TO CLD VIS AND WIND=



000
FTUS41 KBUF 150900 AAA
TAFART
TAF AMD
KART 150915Z 1509/1606 00000KT P6SM OVC060
     FM151600 22008KT P6SM SCT045 BKN080
     FM151800 22011KT P6SM SCT045 BKN150
     FM160000 20004KT P6SM OVC080
     FM160300 VRB03KT P6SM -SHRA OVC050=



000
FTUS41 KBUF 150900 AAA
TAFIAG
TAF AMD
KIAG 150915Z 1509/1606 VRB03KT P6SM OVC060
     FM151500 22009KT P6SM SCT045 BKN140
     FM160000 20004KT P6SM VCSH OVC090
     FM160200 21005KT P6SM -SHRA OVC045
     FM160400 23006KT P6SM -SHRA OVC030=



000
FTUS41 KBUF 150900 AAA
TAFBUF
TAF AMD
KBUF 150915Z 1509/1606 17004KT P6SM OVC060
     FM151500 23008KT P6SM SCT045 BKN140
     FM152300 23004KT P6SM SCT045 OVC090
     FM160000 VRB03KT P6SM VCSH SCT045 OVC080
     FM160200 22004KT P6SM -SHRA OVC045
     FM160300 22006KT P6SM -SHRA OVC025=



000
FTUS41 KBUF 150500
TAFIAG
TAF
KIAG 150540Z 1506/1606 VRB03KT P6SM BKN060
     FM151500 22009KT P6SM SCT045 BKN140
     FM160000 20004KT P6SM VCSH OVC090
     FM160200 21005KT P6SM -SHRA OVC045
     FM160400 23006KT P6SM -SHRA OVC030=



000
FTUS41 KBUF 150500
TAFJHW
TAF
KJHW 150540Z 1506/1606 00000KT P6SM BKN045
     FM151500 20005KT P6SM SCT040 BKN140
     FM152000 23007KT P6SM SCT040 BKN110
     FM152300 21005KT P6SM VCSH SCT040 OVC070
     FM160000 20004KT 6SM -SHRA OVC040
     FM160500 00000KT 6SM -SHRA OVC020
      AMD LTD TO CLD VIS AND WIND=



000
FTUS41 KBUF 150500
TAFBUF
TAF
KBUF 150540Z 1506/1606 17004KT P6SM OVC050
     FM151500 23008KT P6SM SCT045 BKN140
     FM152300 23004KT P6SM SCT045 OVC090
     FM160000 VRB03KT P6SM VCSH SCT045 OVC080
     FM160200 22004KT P6SM -SHRA OVC045
     FM160300 22006KT P6SM -SHRA OVC025=



000
FTUS41 KBUF 150500
TAFART
TAF
KART 150540Z 1506/1606 00000KT P6SM BKN060
     FM151600 22008KT P6SM SCT045 BKN080
     FM151800 22011KT P6SM SCT045 BKN150
     FM160000 20004KT P6SM OVC080
     FM160300 VRB03KT P6SM -SHRA OVC050=



000
FTUS41 KBUF 150500
TAFROC
TAF
KROC 150540Z 1506/1606 00000KT P6SM OVC060
     FM151500 23005KT P6SM SCT045 BKN150
     FM160100 00000KT P6SM VCSH OVC080
     FM160200 VRB03KT P6SM -SHRA OVC060
     FM160300 22005KT P6SM -SHRA OVC035=



000
FTUS41 KBUF 150200 AAA
TAFJHW
TAF AMD
KJHW 150257Z 1503/1524 00000KT P6SM OVC045
     FM150700 VRB03KT P6SM FEW250
     FM150900 21004KT P6SM SCT030
     FM151500 22008KT P6SM SCT140
     FM152100 26007KT P6SM BKN045
     FM152300 VRB03KT P6SM -SHRA OVC050
      AMD LTD TO CLD VIS AND WIND=



000
FTUS41 KBUF 150200 AAA
TAFIAG
TAF AMD
KIAG 150257Z 1503/1524 00000KT P6SM FEW045
     FM150900 00000KT P6SM FEW250
     FM151100 16004KT P6SM FEW250
     FM151400 20006KT P6SM SCT140
     FM151800 19010KT P6SM BKN120
     FM152100 23013KT P6SM OVC100=



000
FTUS41 KBUF 150200 AAA
TAFART
TAF AMD
KART 150257Z 1503/1524 13003KT P6SM SKC
     FM150800 16004KT P6SM SCT050
     FM151200 17004KT P6SM BKN040
     FM151400 21006KT P6SM BKN100
     FM151900 22011KT P6SM SCT110
     FM152000 23011KT P6SM BKN110=



000
FTUS41 KBUF 150200 AAA
TAFBUF
TAF AMD
KBUF 150257Z 1503/1524 09003KT P6SM SCT045 BKN050
     FM150900 VRB03KT P6SM SCT050
     FM151400 20006KT P6SM SCT130
     FM151800 21010KT P6SM BKN130
     FM151900 22011KT P6SM BKN120
     FM152300 24006KT P6SM OVC080=



000
FTUS41 KBUF 150200 AAA
TAFROC
TAF AMD
KROC 150257Z 1503/1524 16003KT P6SM OVC060
     FM150700 18004KT P6SM SCT045
     FM151100 20004KT P6SM FEW250
     FM151500 24006KT P6SM SCT130
     FM152100 VRB03KT P6SM BKN140=



000
FTUS41 KBUF 142300
TAFBUF
TAF
KBUF 142337Z 1500/1524 24010KT P6SM SCT050 SCT120
     FM150400 16004KT P6SM FEW045 FEW250
     FM151000 17004KT P6SM FEW250
     FM151500 21006KT P6SM SCT130
     FM151800 21010KT P6SM BKN080=



000
FTUS41 KBUF 142300
TAFJHW
TAF
KJHW 142337Z 1500/1524 35005KT P6SM OVC045
     FM150700 VRB03KT P6SM FEW250
     FM150900 21004KT P6SM SCT030
     FM151000 20004KT P6SM SCT250
     FM152100 26007KT P6SM BKN045
     FM152300 VRB03KT P6SM -SHRA OVC050
      AMD LTD TO CLD VIS AND WIND=



000
FTUS41 KBUF 142300
TAFIAG
TAF
KIAG 142337Z 1500/1524 05005KT P6SM BKN050
     FM150200 13004KT P6SM FEW050 FEW250
     FM151100 16004KT P6SM FEW250
     FM151400 20006KT P6SM SCT140
     FM151800 19010KT P6SM BKN120
     FM152100 23013KT P6SM OVC080=



000
FTUS41 KBUF 142300
TAFART
TAF
KART 142337Z 1500/1524 30004KT P6SM SKC
     FM150200 20004KT P6SM FEW250
     FM150600 16005KT P6SM FEW050 FEW250
     FM151200 17004KT P6SM BKN040
     FM151400 22006KT P6SM BKN120
     FM152300 19005KT P6SM BKN100=



000
FTUS41 KBUF 142300
TAFROC
TAF
KROC 142337Z 1500/1524 05006KT P6SM OVC050
     FM150200 13004KT P6SM FEW250
     FM150600 17004KT P6SM FEW045
     FM151100 20004KT P6SM FEW250
     FM151500 24006KT P6SM SCT130
     FM152100 VRB03KT P6SM BKN110=



000
FTUS41 KBUF 142100 AAA
TAFART
TAF AMD
KART 142129Z 1421/1518 VRB03KT P6SM SCT030
     FM142200 29005KT P6SM SCT250
     FM150300 16005KT P6SM FEW030
     FM151100 17004KT P6SM BKN035
     FM151400 21006KT P6SM SCT035
     FM151700 22009KT P6SM SCT130=



000
FTUS41 KBUF 142100 AAA
TAFROC
TAF AMD
KROC 142129Z 1421/1518 36005KT P6SM SCT040
     FM142200 02005KT P6SM SCT040
     FM150100 12004KT P6SM FEW250
     FM150600 17004KT P6SM FEW050
     FM151300 21005KT P6SM SCT080=



000
FTUS41 KBUF 142100 AAA
TAFJHW
TAF AMD
KJHW 142129Z 1421/1518 10003KT P6SM OVC035
     FM142200 00000KT P6SM BKN040
     FM150100 21004KT P6SM SCT035
     FM151500 22008KT P6SM SCT035
      AMD LTD TO CLD VIS AND WIND=



000
FTUS41 KBUF 142100 AAA
TAFIAG
TAF AMD
KIAG 142129Z 1421/1518 28004KT P6SM SCT040
     FM150300 15004KT P6SM FEW045
     FM150500 VRB03KT P6SM FEW040
     FM151100 16004KT P6SM SCT045
     FM151700 21009KT P6SM BKN130=



000
FTUS41 KBUF 142100 AAA
TAFBUF
TAF AMD
KBUF 142129Z 1421/1518 26005KT P6SM SCT040
     FM150300 16004KT P6SM FEW250
     FM150600 17004KT P6SM FEW045
     FM151500 21006KT P6SM SCT045
     FM151700 21009KT P6SM BKN130=



000
FTUS41 KBUF 141700
TAFJHW
TAF
KJHW 141729Z 1418/1518 10003KT P6SM OVC035
     FM142200 00000KT P6SM BKN040
     FM150100 21004KT P6SM SCT035
     FM151500 22008KT P6SM SCT035
      AMD LTD TO CLD VIS AND WIND=



000
FTUS41 KBUF 141700
TAFIAG
TAF
KIAG 141729Z 1418/1518 16003KT P6SM BKN050
     FM142100 28004KT P6SM SCT040
     FM150300 15004KT P6SM FEW045
     FM150500 VRB03KT P6SM FEW040
     FM151100 16004KT P6SM SCT045
     FM151700 21009KT P6SM BKN130=



000
FTUS41 KBUF 141700
TAFBUF
TAF
KBUF 141729Z 1418/1518 00000KT P6SM BKN040
     FM142100 26005KT P6SM SCT040
     FM150300 16004KT P6SM FEW250
     FM150600 17004KT P6SM FEW045
     FM151500 21006KT P6SM SCT045
     FM151700 21009KT P6SM BKN130=



000
FTUS41 KBUF 141700
TAFROC
TAF
KROC 141729Z 1418/1518 36005KT P6SM SCT040
     FM142200 02005KT P6SM SCT040
     FM150100 12004KT P6SM FEW250
     FM150600 17004KT P6SM FEW050
     FM151300 21005KT P6SM SCT080=



000
FTUS41 KBUF 141700
TAFART
TAF
KART 141729Z 1418/1518 VRB03KT P6SM SCT030
     FM142200 29005KT P6SM SCT250
     FM150300 16005KT P6SM FEW030
     FM151100 17004KT P6SM BKN035
     FM151400 21006KT P6SM SCT035
     FM151700 22009KT P6SM SCT130=



000
FTUS41 KBUF 141500 AAA
TAFROC
TAF AMD
KROC 141502Z 1415/1512 05003KT P6SM BKN025 BKN035
     FM141900 35004KT P6SM SCT040
     FM142300 04005KT P6SM FEW035
     FM150100 VRB03KT P6SM FEW200
     FM150700 20004KT P6SM SCT040=



000
FTUS41 KBUF 141500 AAA
TAFBUF
TAF AMD
KBUF 141502Z 1415/1512 25003KT P6SM BKN035
     FM141800 26006KT P6SM SCT045
     FM150000 VRB03KT P6SM FEW045
     FM150500 17004KT P6SM SCT045=



000
FTUS41 KBUF 141500 AAA
TAFJHW
TAF AMD
KJHW 141502Z 1415/1512 00000KT P6SM OVC035
     FM141900 34005KT P6SM BKN040
     FM142300 34004KT P6SM FEW035
     FM150700 00000KT 3SM BR FEW003
     FM150800 00000KT 1SM BR FEW003
     FM150900 VRB03KT 1/2SM FG BKN003
      AMD LTD TO CLD VIS AND WIND=



000
FTUS41 KBUF 141500 AAA
TAFART
TAF AMD
KART 141502Z 1415/1512 36005KT P6SM OVC020
     FM141700 28005KT P6SM BKN030
     FM142200 VRB03KT P6SM FEW035 FEW200
     FM150800 VRB03KT P6SM SCT045
     FM151100 17004KT P6SM BKN035=



000
FTUS41 KBUF 141500 AAA
TAFIAG
TAF AMD
KIAG 141502Z 1415/1512 05003KT P6SM BKN035
     FM141900 29006KT P6SM SCT045
     FM150100 00000KT P6SM SCT050
     FM151100 17004KT P6SM SCT050=



000
FTUS41 KBUF 141100
TAFROC
TAF
KROC 141136Z 1412/1512 00000KT P6SM SCT035
     FM141900 35004KT P6SM SCT040
     FM142300 04005KT P6SM FEW035
     FM150100 VRB03KT P6SM FEW200
     FM150700 20004KT P6SM SCT040=



000
FTUS41 KBUF 141100
TAFJHW
TAF
KJHW 141136Z 1412/1512 VRB03KT P6SM OVC035
     FM141500 00000KT P6SM SCT035
     FM142300 34004KT P6SM FEW035
     FM150700 00000KT 3SM BR FEW003
     FM150800 00000KT 1SM BR FEW003
     FM150900 VRB03KT 1/2SM FG BKN003
      AMD LTD TO CLD VIS AND WIND=



000
FTUS41 KBUF 141100
TAFART
TAF
KART 141136Z 1412/1512 36007KT P6SM OVC025
     FM141500 02004KT P6SM SCT035
     FM141900 28005KT P6SM FEW045
     FM150000 VRB03KT P6SM FEW035 FEW200
     FM150800 VRB03KT P6SM SCT045
     FM151100 17004KT P6SM BKN035=



000
FTUS41 KBUF 141100
TAFIAG
TAF
KIAG 141136Z 1412/1512 VRB03KT P6SM FEW040
     FM142000 29006KT P6SM SCT045
     FM150100 00000KT P6SM SCT050
     FM151100 17004KT P6SM SCT050=



000
FTUS41 KBUF 141100
TAFBUF
TAF
KBUF 141136Z 1412/1512 12003KT P6SM FEW050
     FM141700 26006KT P6SM SCT045
     FM150000 VRB03KT P6SM FEW045
     FM150500 17004KT P6SM SCT045=



000
FTUS41 KBUF 140900 AAA
TAFART
TAF AMD
KART 140915Z 1409/1506 31007KT P6SM OVC025
     FM141200 35005KT P6SM BKN035
     FM141400 02004KT P6SM SCT035
     FM150100 00000KT P6SM FEW200=



000
FTUS41 KBUF 140900 AAA
TAFROC
TAF AMD
KROC 140915Z 1409/1506 33005KT P6SM FEW030
     FM142000 01004KT P6SM SCT040
     FM142300 05004KT P6SM FEW035
     FM150000 VRB03KT P6SM FEW200=



000
FTUS41 KBUF 140900 AAA
TAFBUF
TAF AMD
KBUF 140915Z 1409/1506 36004KT P6SM FEW050
     FM142000 26004KT P6SM SCT050
     FM150100 VRB03KT P6SM FEW200=



000
FTUS41 KBUF 140900 AAA
TAFJHW
TAF AMD
KJHW 140915Z 1409/1506 32004KT P6SM OVC035
     FM141500 VRB04KT P6SM SCT035
     FM150000 VRB03KT P6SM FEW040
     FM150100 00000KT P6SM FEW200
      AMD LTD TO CLD VIS AND WIND=



000
FTUS41 KBUF 140900 AAA
TAFIAG
TAF AMD
KIAG 140915Z 1409/1506 VRB04KT P6SM FEW035
     FM150100 00000KT P6SM FEW200=



000
FTUS41 KBUF 140500
TAFROC
TAF
KROC 140540Z 1406/1506 33005KT P6SM FEW030
     FM142000 01004KT P6SM SCT040
     FM142300 05004KT P6SM FEW035
     FM150000 VRB03KT P6SM FEW200=



000
FTUS41 KBUF 140500
TAFART
TAF
KART 140540Z 1406/1506 31007KT P6SM OVC035
     FM141200 35005KT P6SM BKN035
     FM141400 02004KT P6SM SCT035
     FM150100 00000KT P6SM FEW200=



000
FTUS41 KBUF 140500
TAFBUF
TAF
KBUF 140540Z 1406/1506 36004KT P6SM FEW050
     FM142000 26004KT P6SM SCT050
     FM150100 VRB03KT P6SM FEW200=



000
FTUS41 KBUF 140500
TAFJHW
TAF
KJHW 140540Z 1406/1506 32004KT P6SM OVC035
     FM141500 VRB04KT P6SM SCT035
     FM150000 VRB03KT P6SM FEW040
     FM150100 00000KT P6SM FEW200
      AMD LTD TO CLD VIS AND WIND=



000
FTUS41 KBUF 140500
TAFIAG
TAF
KIAG 140540Z 1406/1506 VRB04KT P6SM FEW035
     FM150100 00000KT P6SM FEW200=



000
FTUS41 KBUF 140300 AAA
TAFIAG
TAF AMD
KIAG 140318Z 1403/1424 36006KT P6SM FEW020 BKN060
     FM140800 VRB03KT P6SM SCT250
     FM142000 00000KT P6SM SCT035=



000
FTUS41 KBUF 140300 AAA
TAFART
TAF AMD
KART 140318Z 1403/1424 31007KT P6SM BKN035
     FM140500 VRB03KT P6SM SCT250
     FM141100 04004KT P6SM BKN250
     FM141400 VRB03KT P6SM SCT250=



000
FTUS41 KBUF 140300 AAA
TAFROC
TAF AMD
KROC 140318Z 1403/1424 29003KT P6SM SCT030 BKN040
     FM140700 33006KT P6SM BKN200
     FM140900 33005KT P6SM BKN015
     FM141500 VRB03KT P6SM SCT015
     FM141700 01004KT P6SM SCT250
     FM142100 03005KT P6SM SCT030=



000
FTUS41 KBUF 140300 AAA
TAFJHW
TAF AMD
KJHW 140318Z 1403/1424 31007KT P6SM FEW029 OVC040
     FM140900 05006KT P6SM BKN007
     FM141000 06006KT P6SM BKN060
     FM141200 08005KT P6SM BKN250
     FM142000 30004KT P6SM SCT035
      AMD LTD TO CLD VIS AND WIND=



000
FTUS41 KBUF 140300 AAA
TAFBUF
TAF AMD
KBUF 140318Z 1403/1424 34006KT P6SM SCT030 BKN060
     FM140400 VRB03KT P6SM BKN250
     FM141600 VRB03KT P6SM SCT040 BKN250=



000
FTUS41 KBUF 132300
TAFJHW
TAF
KJHW 132330Z 1400/1424 31008KT P6SM BKN050 OVC060
     FM140300 34006KT P6SM BKN020
     FM140900 05006KT P6SM BKN007
     FM141000 06006KT P6SM BKN060
     FM141200 08005KT P6SM BKN250
     FM142000 30004KT P6SM SCT035
      AMD LTD TO CLD VIS AND WIND=



000
FTUS41 KBUF 132300
TAFBUF
TAF
KBUF 132330Z 1400/1424 33011KT P6SM BKN045 BKN060
     FM140200 33004KT P6SM BKN200
     FM140300 VRB03KT P6SM BKN250=



000
FTUS41 KBUF 132300
TAFROC
TAF
KROC 132330Z 1400/1424 30008KT P6SM FEW030 SCT045 SCT070
     FM140700 33006KT P6SM BKN200
     FM140900 33005KT P6SM BKN015
     FM141500 VRB03KT P6SM SCT015
     FM141700 01004KT P6SM SCT250
     FM142100 03005KT P6SM SCT030=



000
FTUS41 KBUF 132300
TAFIAG
TAF
KIAG 132330Z 1400/1424 33006KT P6SM BKN050
     FM140200 33005KT P6SM BKN200
     FM140800 VRB03KT P6SM SCT250
     FM142000 00000KT P6SM SCT035=



000
FTUS41 KBUF 132300
TAFART
TAF
KART 132330Z 1400/1424 27011KT P6SM OVC035
     FM140300 31004KT P6SM BKN250
     FM140500 VRB03KT P6SM SCT250
     FM141100 04004KT P6SM BKN250
     FM141400 VRB03KT P6SM SCT250=



    US Dept of Commerce
    National Oceanic and Atmospheric Administration
    National Weather Service
    1325 East West Highway
    Silver Spring, MD 20910
    Page Author: NWS Internet Services Team
Disclaimer
Information Quality
Credits
Glossary
Privacy Policy
Freedom of Information Act (FOIA)
About Us
Career Opportunities